sensor_id;sensor_type;location;lat;lon;timestamp;pressure;altitude;pressure_sealevel;temperature;humidity
60244;BME280;46106;51.468;5.814;2023-04-03T00:01:34;102635.69;;;2.72;100.00
60244;BME280;46106;51.468;5.814;2023-04-03T00:04:00;102636.53;;;2.74;100.00
60244;BME280;46106;51.468;5.814;2023-04-03T00:06:26;102622.59;;;2.48;100.00
60244;BME280;46106;51.468;5.814;2023-04-03T00:08:52;102621.66;;;2.49;100.00
60244;BME280;46106;51.468;5.814;2023-04-03T00:11:18;102633.19;;;2.58;100.00
60244;BME280;46106;51.468;5.814;2023-04-03T00:13:45;102630.53;;;2.57;100.00
60244;BME280;46106;51.468;5.814;2023-04-03T00:16:11;102637.72;;;2.58;100.00
60244;BME280;46106;51.468;5.814;2023-04-03T00:18:38;102643.25;;;2.50;100.00
60244;BME280;46106;51.468;5.814;2023-04-03T00:21:04;102635.50;;;2.27;100.00
60244;BME280;46106;51.468;5.814;2023-04-03T00:23:30;102635.38;;;2.36;100.00
60244;BME280;46106;51.468;5.814;2023-04-03T00:25:57;102637.16;;;2.37;100.00
60244;BME280;46106;51.468;5.814;2023-04-03T00:28:22;102633.66;;;2.29;100.00
60244;BME280;46106;51.468;5.814;2023-04-03T00:30:49;102646.97;;;2.45;100.00
60244;BME280;46106;51.468;5.814;2023-04-03T00:33:15;102634.25;;;2.50;100.00
60244;BME280;46106;51.468;5.814;2023-04-03T00:35:41;102628.97;;;2.42;100.00
60244;BME280;46106;51.468;5.814;2023-04-03T00:38:09;102636.09;;;2.48;100.00
60244;BME280;46106;51.468;5.814;2023-04-03T00:40:39;102621.88;;;2.35;100.00
60244;BME280;46106;51.468;5.814;2023-04-03T00:43:18;102648.69;;;2.47;100.00
60244;BME280;46106;51.468;5.814;2023-04-03T00:45:46;102646.03;;;2.46;100.00
60244;BME280;46106;51.468;5.814;2023-04-03T00:48:17;102642.44;;;2.45;100.00
60244;BME280;46106;51.468;5.814;2023-04-03T00:50:44;102648.84;;;2.39;100.00
60244;BME280;46106;51.468;5.814;2023-04-03T00:53:17;102650.63;;;2.41;100.00
60244;BME280;46106;51.468;5.814;2023-04-03T00:55:44;102642.47;;;2.44;100.00
60244;BME280;46106;51.468;5.814;2023-04-03T00:58:11;102648.00;;;2.34;100.00
60244;BME280;46106;51.468;5.814;2023-04-03T01:00:40;102654.41;;;2.29;100.00
60244;BME280;46106;51.468;5.814;2023-04-03T01:03:07;102646.44;;;2.19;100.00
60244;BME280;46106;51.468;5.814;2023-04-03T01:05:33;102643.75;;;2.18;100.00
60244;BME280;46106;51.468;5.814;2023-04-03T01:07:59;102642.16;;;2.05;100.00
60244;BME280;46106;51.468;5.814;2023-04-03T01:10:25;102663.72;;;2.08;100.00
60244;BME280;46106;51.468;5.814;2023-04-03T01:12:51;102656.41;;;2.16;100.00
60244;BME280;46106;51.468;5.814;2023-04-03T01:15:20;102659.91;;;2.21;100.00
60244;BME280;46106;51.468;5.814;2023-04-03T01:17:51;102669.03;;;2.15;100.00
60244;BME280;46106;51.468;5.814;2023-04-03T01:25:51;102670.09;;;2.04;100.00
60244;BME280;46106;51.468;5.814;2023-04-03T01:28:21;102670.88;;;2.12;100.00
60244;BME280;46106;51.468;5.814;2023-04-03T01:30:57;102667.44;;;2.00;100.00
60244;BME280;46106;51.468;5.814;2023-04-03T01:33:25;102668.19;;;2.12;100.00
60244;BME280;46106;51.468;5.814;2023-04-03T01:35:51;102668.38;;;1.96;100.00
60244;BME280;46106;51.468;5.814;2023-04-03T01:38:16;102664.56;;;2.11;100.00
60244;BME280;46106;51.468;5.814;2023-04-03T01:40:42;102667.34;;;2.07;100.00
60244;BME280;46106;51.468;5.814;2023-04-03T01:43:07;102669.94;;;2.13;100.00
60244;BME280;46106;51.468;5.814;2023-04-03T01:45:33;102668.03;;;2.21;100.00
60244;BME280;46106;51.468;5.814;2023-04-03T01:47:58;102669.94;;;2.14;100.00
60244;BME280;46106;51.468;5.814;2023-04-03T01:50:24;102643.25;;;1.91;100.00
60244;BME280;46106;51.468;5.814;2023-04-03T01:52:50;102652.16;;;1.96;100.00
60244;BME280;46106;51.468;5.814;2023-04-03T01:55:15;102661.38;;;1.83;100.00
60244;BME280;46106;51.468;5.814;2023-04-03T01:57:40;102647.84;;;1.84;100.00
60244;BME280;46106;51.468;5.814;2023-04-03T02:00:06;102673.81;;;1.95;100.00
60244;BME280;46106;51.468;5.814;2023-04-03T02:02:33;102671.94;;;2.00;100.00
60244;BME280;46106;51.468;5.814;2023-04-03T02:04:58;102669.50;;;1.80;100.00
60244;BME280;46106;51.468;5.814;2023-04-03T02:07:24;102675.03;;;1.72;100.00
60244;BME280;46106;51.468;5.814;2023-04-03T02:09:49;102673.28;;;1.65;100.00
60244;BME280;46106;51.468;5.814;2023-04-03T02:12:15;102679.66;;;1.62;100.00
60244;BME280;46106;51.468;5.814;2023-04-03T02:14:41;102678.66;;;1.70;100.00
60244;BME280;46106;51.468;5.814;2023-04-03T02:17:06;102675.06;;;1.69;100.00
60244;BME280;46106;51.468;5.814;2023-04-03T02:19:34;102684.81;;;1.81;100.00
60244;BME280;46106;51.468;5.814;2023-04-03T02:22:01;102676.81;;;1.70;100.00
60244;BME280;46106;51.468;5.814;2023-04-03T02:24:27;102687.53;;;1.79;100.00
60244;BME280;46106;51.468;5.814;2023-04-03T02:26:52;102678.63;;;1.71;100.00
60244;BME280;46106;51.468;5.814;2023-04-03T02:29:18;102688.38;;;1.83;100.00
60244;BME280;46106;51.468;5.814;2023-04-03T02:31:43;102688.31;;;1.89;100.00
60244;BME280;46106;51.468;5.814;2023-04-03T02:34:09;102678.47;;;1.82;100.00
60244;BME280;46106;51.468;5.814;2023-04-03T02:36:34;102672.13;;;1.88;100.00
60244;BME280;46106;51.468;5.814;2023-04-03T02:39:03;102688.44;;;1.77;100.00
60244;BME280;46106;51.468;5.814;2023-04-03T02:41:28;102680.31;;;1.78;100.00
60244;BME280;46106;51.468;5.814;2023-04-03T02:44:03;102694.81;;;1.71;100.00
60244;BME280;46106;51.468;5.814;2023-04-03T02:46:29;102677.88;;;1.58;100.00
60244;BME280;46106;51.468;5.814;2023-04-03T02:48:55;102682.25;;;1.69;100.00
60244;BME280;46106;51.468;5.814;2023-04-03T02:51:21;102683.25;;;1.61;100.00
60244;BME280;46106;51.468;5.814;2023-04-03T02:53:48;102683.25;;;1.60;100.00
60244;BME280;46106;51.468;5.814;2023-04-03T02:56:13;102686.78;;;1.67;100.00
60244;BME280;46106;51.468;5.814;2023-04-03T02:58:39;102692.16;;;1.68;100.00
60244;BME280;46106;51.468;5.814;2023-04-03T03:01:04;102688.53;;;1.71;100.00
60244;BME280;46106;51.468;5.814;2023-04-03T03:03:30;102685.94;;;1.63;100.00
60244;BME280;46106;51.468;5.814;2023-04-03T03:06:09;102687.75;;;1.61;100.00
60244;BME280;46106;51.468;5.814;2023-04-03T03:08:35;102683.19;;;1.66;100.00
60244;BME280;46106;51.468;5.814;2023-04-03T03:11:02;102685.03;;;1.62;100.00
60244;BME280;46106;51.468;5.814;2023-04-03T03:13:27;102675.97;;;1.67;100.00
60244;BME280;46106;51.468;5.814;2023-04-03T03:15:53;102690.22;;;1.79;100.00
60244;BME280;46106;51.468;5.814;2023-04-03T03:18:18;102686.78;;;1.65;100.00
60244;BME280;46106;51.468;5.814;2023-04-03T03:20:44;102680.66;;;1.52;100.00
60244;BME280;46106;51.468;5.814;2023-04-03T03:23:09;102695.78;;;1.65;100.00
60244;BME280;46106;51.468;5.814;2023-04-03T03:25:39;102693.00;;;1.72;100.00
60244;BME280;46106;51.468;5.814;2023-04-03T03:28:05;102672.41;;;1.64;100.00
60244;BME280;46106;51.468;5.814;2023-04-03T03:30:31;102683.19;;;1.68;100.00
60244;BME280;46106;51.468;5.814;2023-04-03T03:32:56;102696.56;;;1.75;100.00
60244;BME280;46106;51.468;5.814;2023-04-03T03:35:22;102688.63;;;1.61;100.00
60244;BME280;46106;51.468;5.814;2023-04-03T03:37:47;102695.84;;;1.61;100.00
60244;BME280;46106;51.468;5.814;2023-04-03T03:40:13;102692.25;;;1.59;100.00
60244;BME280;46106;51.468;5.814;2023-04-03T03:42:39;102706.53;;;1.69;100.00
60244;BME280;46106;51.468;5.814;2023-04-03T03:45:05;102701.28;;;1.58;100.00
60244;BME280;46106;51.468;5.814;2023-04-03T03:47:31;102706.72;;;1.55;100.00
60244;BME280;46106;51.468;5.814;2023-04-03T03:49:56;102708.47;;;1.57;100.00
60244;BME280;46106;51.468;5.814;2023-04-03T03:52:21;102705.91;;;1.46;100.00
60244;BME280;46106;51.468;5.814;2023-04-03T03:54:47;102703.22;;;1.45;100.00
60244;BME280;46106;51.468;5.814;2023-04-03T03:57:12;102706.75;;;1.50;100.00
60244;BME280;46106;51.468;5.814;2023-04-03T03:59:38;102709.66;;;1.33;100.00
60244;BME280;46106;51.468;5.814;2023-04-03T04:02:05;102713.28;;;1.31;100.00
60244;BME280;46106;51.468;5.814;2023-04-03T04:04:30;102711.56;;;1.22;100.00
60244;BME280;46106;51.468;5.814;2023-04-03T04:06:56;102696.41;;;1.10;100.00
60244;BME280;46106;51.468;5.814;2023-04-03T04:09:21;102719.69;;;1.17;100.00
60244;BME280;46106;51.468;5.814;2023-04-03T04:11:46;102714.28;;;1.19;100.00
60244;BME280;46106;51.468;5.814;2023-04-03T04:14:12;102716.97;;;1.20;100.00
60244;BME280;46106;51.468;5.814;2023-04-03T04:16:38;102716.06;;;1.21;100.00
60244;BME280;46106;51.468;5.814;2023-04-03T04:19:04;102716.06;;;1.21;100.00
60244;BME280;46106;51.468;5.814;2023-04-03T04:21:29;102712.53;;;1.13;100.00
60244;BME280;46106;51.468;5.814;2023-04-03T04:23:55;102714.22;;;1.26;100.00
60244;BME280;46106;51.468;5.814;2023-04-03T04:26:20;102705.25;;;1.21;100.00
60244;BME280;46106;51.468;5.814;2023-04-03T04:28:46;102721.41;;;1.26;100.00
60244;BME280;46106;51.468;5.814;2023-04-03T04:31:11;102694.66;;;1.01;100.00
60244;BME280;46106;51.468;5.814;2023-04-03T04:33:37;102718.81;;;1.18;100.00
60244;BME280;46106;51.468;5.814;2023-04-03T04:36:02;102726.69;;;1.40;100.00
60244;BME280;46106;51.468;5.814;2023-04-03T04:38:28;102729.22;;;1.52;100.00
60244;BME280;46106;51.468;5.814;2023-04-03T04:40:53;102729.19;;;1.55;100.00
60244;BME280;46106;51.468;5.814;2023-04-03T04:43:19;102721.25;;;1.43;100.00
60244;BME280;46106;51.468;5.814;2023-04-03T04:45:44;102729.31;;;1.46;100.00
60244;BME280;46106;51.468;5.814;2023-04-03T04:48:10;102735.56;;;1.51;100.00
60244;BME280;46106;51.468;5.814;2023-04-03T04:50:35;102736.47;;;1.50;100.00
60244;BME280;46106;51.468;5.814;2023-04-03T04:53:01;102740.97;;;1.50;100.00
60244;BME280;46106;51.468;5.814;2023-04-03T04:55:26;102729.44;;;1.32;100.00
60244;BME280;46106;51.468;5.814;2023-04-03T04:57:52;102740.19;;;1.37;100.00
60244;BME280;46106;51.468;5.814;2023-04-03T05:00:17;102735.81;;;1.28;100.00
60244;BME280;46106;51.468;5.814;2023-04-03T05:02:43;102740.31;;;1.24;100.00
60244;BME280;46106;51.468;5.814;2023-04-03T05:05:09;102727.81;;;1.17;100.00
60244;BME280;46106;51.468;5.814;2023-04-03T05:07:34;102736.69;;;1.27;100.00
60244;BME280;46106;51.468;5.814;2023-04-03T05:10:01;102731.41;;;1.13;100.00
60244;BME280;46106;51.468;5.814;2023-04-03T05:12:28;102736.72;;;1.24;100.00
60244;BME280;46106;51.468;5.814;2023-04-03T05:14:54;102741.22;;;1.26;100.00
60244;BME280;46106;51.468;5.814;2023-04-03T05:17:19;102751.16;;;1.20;100.00
60244;BME280;46106;51.468;5.814;2023-04-03T05:19:45;102749.28;;;1.28;100.00
60244;BME280;46106;51.468;5.814;2023-04-03T05:22:10;102749.31;;;1.26;100.00
60244;BME280;46106;51.468;5.814;2023-04-03T05:24:35;102747.50;;;1.25;100.00
60244;BME280;46106;51.468;5.814;2023-04-03T05:27:01;102751.09;;;1.26;100.00
60244;BME280;46106;51.468;5.814;2023-04-03T05:29:26;102763.69;;;1.27;100.00
60244;BME280;46106;51.468;5.814;2023-04-03T05:31:52;102758.28;;;1.27;100.00
60244;BME280;46106;51.468;5.814;2023-04-03T05:34:18;102769.00;;;1.35;100.00
60244;BME280;46106;51.468;5.814;2023-04-03T05:36:43;102770.78;;;1.37;100.00
60244;BME280;46106;51.468;5.814;2023-04-03T05:39:09;102735.91;;;1.14;100.00
60244;BME280;46106;51.468;5.814;2023-04-03T05:41:35;102771.75;;;1.28;100.00
60244;BME280;46106;51.468;5.814;2023-04-03T05:44:00;102769.94;;;1.31;100.00
60244;BME280;46106;51.468;5.814;2023-04-03T05:46:26;102762.69;;;1.36;100.00
60244;BME280;46106;51.468;5.814;2023-04-03T05:48:52;102766.19;;;1.44;100.00
60244;BME280;46106;51.468;5.814;2023-04-03T05:51:25;102762.59;;;1.45;100.00
60244;BME280;46106;51.468;5.814;2023-04-03T05:54:00;102766.97;;;1.57;100.00
60244;BME280;46106;51.468;5.814;2023-04-03T05:56:28;102769.47;;;1.74;100.00
60244;BME280;46106;51.468;5.814;2023-04-03T05:58:53;102773.88;;;1.86;100.00
60244;BME280;46106;51.468;5.814;2023-04-03T06:01:19;102778.16;;;2.04;100.00
60244;BME280;46106;51.468;5.814;2023-04-03T06:03:44;102782.63;;;2.06;100.00
60244;BME280;46106;51.468;5.814;2023-04-03T06:06:13;102776.81;;;2.37;100.00
60244;BME280;46106;51.468;5.814;2023-04-03T06:08:39;102769.53;;;2.42;100.00
60244;BME280;46106;51.468;5.814;2023-04-03T06:11:04;102774.66;;;2.61;100.00
60244;BME280;46106;51.468;5.814;2023-04-03T06:13:30;102778.88;;;2.82;100.00
60244;BME280;46106;51.468;5.814;2023-04-03T06:15:56;102780.38;;;3.00;100.00
60244;BME280;46106;51.468;5.814;2023-04-03T06:18:22;102787.22;;;3.24;100.00
60244;BME280;46106;51.468;5.814;2023-04-03T06:20:47;102788.13;;;3.23;100.00
60244;BME280;46106;51.468;5.814;2023-04-03T06:23:13;102792.03;;;3.58;100.00
60244;BME280;46106;51.468;5.814;2023-04-03T06:25:38;102792.56;;;3.77;100.00
60244;BME280;46106;51.468;5.814;2023-04-03T06:28:04;102798.38;;;4.03;100.00
60244;BME280;46106;51.468;5.814;2023-04-03T06:30:29;102791.69;;;4.21;100.00
60244;BME280;46106;51.468;5.814;2023-04-03T06:32:55;102792.69;;;4.16;100.00
60244;BME280;46106;51.468;5.814;2023-04-03T06:35:20;102796.31;;;4.15;100.00
60244;BME280;46106;51.468;5.814;2023-04-03T06:37:48;102799.47;;;4.37;100.00
60244;BME280;46106;51.468;5.814;2023-04-03T06:40:21;102795.84;;;4.77;100.00
60244;BME280;46106;51.468;5.814;2023-04-03T06:42:47;102801.28;;;4.77;100.00
60244;BME280;46106;51.468;5.814;2023-04-03T06:45:13;102801.81;;;4.93;100.00
60244;BME280;46106;51.468;5.814;2023-04-03T06:47:38;102801.03;;;5.25;100.00
60244;BME280;46106;51.468;5.814;2023-04-03T06:50:05;102802.31;;;5.10;100.00
60244;BME280;46106;51.468;5.814;2023-04-03T06:52:31;102808.84;;;5.02;100.00
60244;BME280;46106;51.468;5.814;2023-04-03T06:54:57;102811.41;;;5.44;100.00
60244;BME280;46106;51.468;5.814;2023-04-03T06:57:24;102805.75;;;5.17;100.00
60244;BME280;46106;51.468;5.814;2023-04-03T06:59:50;102808.38;;;5.22;100.00
60244;BME280;46106;51.468;5.814;2023-04-03T07:02:16;102818.09;;;5.30;100.00
60244;BME280;46106;51.468;5.814;2023-04-03T07:04:42;102817.41;;;5.22;100.00
60244;BME280;46106;51.468;5.814;2023-04-03T07:07:07;102814.13;;;5.44;100.00
60244;BME280;46106;51.468;5.814;2023-04-03T07:09:33;102827.59;;;5.48;100.00
60244;BME280;46106;51.468;5.814;2023-04-03T07:11:59;102819.00;;;5.65;100.00
60244;BME280;46106;51.468;5.814;2023-04-03T07:14:24;102825.69;;;5.52;100.00
60244;BME280;46106;51.468;5.814;2023-04-03T07:16:50;102830.22;;;5.86;100.00
60244;BME280;46106;51.468;5.814;2023-04-03T07:19:16;102823.47;;;6.02;100.00
60244;BME280;46106;51.468;5.814;2023-04-03T07:21:43;102838.66;;;5.75;100.00
60244;BME280;46106;51.468;5.814;2023-04-03T07:24:09;102843.38;;;5.32;100.00
60244;BME280;46106;51.468;5.814;2023-04-03T07:26:34;102822.31;;;5.77;100.00
60244;BME280;46106;51.468;5.814;2023-04-03T07:29:03;102837.53;;;5.84;100.00
60244;BME280;46106;51.468;5.814;2023-04-03T07:31:28;102836.59;;;5.85;100.00
60244;BME280;46106;51.468;5.814;2023-04-03T07:33:54;102816.00;;;5.76;100.00
60244;BME280;46106;51.468;5.814;2023-04-03T07:36:22;102845.41;;;5.60;100.00
60244;BME280;46106;51.468;5.814;2023-04-03T07:38:48;102842.94;;;5.85;100.00
60244;BME280;46106;51.468;5.814;2023-04-03T07:41:15;102839.09;;;6.57;100.00
60244;BME280;46106;51.468;5.814;2023-04-03T07:43:40;102851.34;;;6.42;100.00
60244;BME280;46106;51.468;5.814;2023-04-03T07:46:10;102859.41;;;6.45;100.00
60244;BME280;46106;51.468;5.814;2023-04-03T07:48:37;102855.91;;;6.41;100.00
60244;BME280;46106;51.468;5.814;2023-04-03T07:51:03;102851.88;;;6.55;100.00
60244;BME280;46106;51.468;5.814;2023-04-03T07:53:29;102847.28;;;6.57;100.00
60244;BME280;46106;51.468;5.814;2023-04-03T07:55:57;102846.84;;;7.01;100.00
60244;BME280;46106;51.468;5.814;2023-04-03T07:58:22;102859.41;;;7.60;100.00
60244;BME280;46106;51.468;5.814;2023-04-03T08:00:48;102856.25;;;7.18;100.00
60244;BME280;46106;51.468;5.814;2023-04-03T08:03:14;102858.97;;;7.99;100.00
60244;BME280;46106;51.468;5.814;2023-04-03T08:05:43;102850.53;;;8.05;92.45
60244;BME280;46106;51.468;5.814;2023-04-03T08:08:10;102858.91;;;8.25;88.07
60244;BME280;46106;51.468;5.814;2023-04-03T08:10:39;102862.22;;;8.10;87.29
60244;BME280;46106;51.468;5.814;2023-04-03T08:13:05;102867.47;;;8.40;87.48
60244;BME280;46106;51.468;5.814;2023-04-03T08:15:31;102862.97;;;8.14;86.99
60244;BME280;46106;51.468;5.814;2023-04-03T08:17:58;102865.38;;;8.48;78.48
60244;BME280;46106;51.468;5.814;2023-04-03T08:20:24;102859.97;;;8.94;72.65
60244;BME280;46106;51.468;5.814;2023-04-03T08:22:50;102860.53;;;8.56;73.62
60244;BME280;46106;51.468;5.814;2023-04-03T08:25:15;102862.44;;;9.00;73.63
60244;BME280;46106;51.468;5.814;2023-04-03T08:27:42;102863.13;;;8.59;69.88
60244;BME280;46106;51.468;5.814;2023-04-03T08:30:08;102873.19;;;8.57;69.02
60244;BME280;46106;51.468;5.814;2023-04-03T08:32:34;102865.25;;;8.26;69.88
60244;BME280;46106;51.468;5.814;2023-04-03T08:35:01;102862.69;;;8.21;72.87
60244;BME280;46106;51.468;5.814;2023-04-03T08:37:26;102867.78;;;8.56;68.56
60244;BME280;46106;51.468;5.814;2023-04-03T08:39:52;102868.69;;;9.26;68.89
60244;BME280;46106;51.468;5.814;2023-04-03T08:50:20;102875.56;;;8.90;59.82
60244;BME280;46106;51.468;5.814;2023-04-03T08:52:52;102869.44;;;9.29;63.81
60244;BME280;46106;51.468;5.814;2023-04-03T08:55:39;102875.81;;;9.52;60.81
60244;BME280;46106;51.468;5.814;2023-04-03T08:58:09;102874.53;;;9.16;57.42
60244;BME280;46106;51.468;5.814;2023-04-03T09:00:57;102878.13;;;9.18;53.49
60244;BME280;46106;51.468;5.814;2023-04-03T09:03:23;102870.91;;;9.60;57.67
60244;BME280;46106;51.468;5.814;2023-04-03T09:05:57;102867.84;;;10.29;52.55
60244;BME280;46106;51.468;5.814;2023-04-03T09:08:33;102875.44;;;9.61;53.37
60244;BME280;46106;51.468;5.814;2023-04-03T09:16:35;102871.22;;;9.95;52.43
60244;BME280;46106;51.468;5.814;2023-04-03T09:19:39;102867.56;;;10.17;49.47
60244;BME280;46106;51.468;5.814;2023-04-03T09:22:37;102878.47;;;9.96;49.76
60244;BME280;46106;51.468;5.814;2023-04-03T09:25:14;102878.56;;;10.15;48.43
60244;BME280;46106;51.468;5.814;2023-04-03T09:27:41;102873.03;;;10.37;47.22
60244;BME280;46106;51.468;5.814;2023-04-03T09:30:16;102877.22;;;10.65;46.45
60244;BME280;46106;51.468;5.814;2023-04-03T09:32:44;102863.63;;;10.22;42.53
60244;BME280;46106;51.468;5.814;2023-04-03T09:37:46;102865.31;;;10.66;40.52
60244;BME280;46106;51.468;5.814;2023-04-03T09:42:55;102863.91;;;9.96;42.06
60244;BME280;46106;51.468;5.814;2023-04-03T09:45:30;102859.97;;;10.82;41.13
60244;BME280;46106;51.468;5.814;2023-04-03T09:51:00;102868.34;;;9.78;42.84
60244;BME280;46106;51.468;5.814;2023-04-03T09:53:42;102863.22;;;10.52;41.81
60244;BME280;46106;51.468;5.814;2023-04-03T09:56:18;102865.25;;;10.68;39.68
60244;BME280;46106;51.468;5.814;2023-04-03T10:06:34;102842.63;;;10.62;39.88
60244;BME280;46106;51.468;5.814;2023-04-03T10:09:05;102858.03;;;9.84;39.49
60244;BME280;46106;51.468;5.814;2023-04-03T10:11:31;102848.00;;;11.03;39.57
60244;BME280;46106;51.468;5.814;2023-04-03T10:13:58;102852.03;;;10.57;39.82
60244;BME280;46106;51.468;5.814;2023-04-03T10:16:56;102854.41;;;10.45;37.77
60244;BME280;46106;51.468;5.814;2023-04-03T10:19:32;102857.22;;;10.23;38.22
60244;BME280;46106;51.468;5.814;2023-04-03T10:25:10;102839.00;;;10.43;40.41
60244;BME280;46106;51.468;5.814;2023-04-03T10:27:45;102834.41;;;11.19;38.57
60244;BME280;46106;51.468;5.814;2023-04-03T10:41:16;102810.97;;;10.76;36.72
60244;BME280;46106;51.468;5.814;2023-04-03T10:43:50;102814.25;;;10.44;36.42
60244;BME280;46106;51.468;5.814;2023-04-03T10:46:28;102815.25;;;10.43;37.47
60244;BME280;46106;51.468;5.814;2023-04-03T10:49:18;102811.84;;;10.57;36.45
60244;BME280;46106;51.468;5.814;2023-04-03T10:51:47;102815.03;;;10.67;36.45
60244;BME280;46106;51.468;5.814;2023-04-03T10:54:28;102796.28;;;10.39;37.73
60244;BME280;46106;51.468;5.814;2023-04-03T10:57:01;102808.31;;;10.74;36.62
60244;BME280;46106;51.468;5.814;2023-04-03T10:59:34;102795.13;;;10.24;36.20
60244;BME280;46106;51.468;5.814;2023-04-03T11:04:42;102804.00;;;10.69;38.84
60244;BME280;46106;51.468;5.814;2023-04-03T11:07:15;102777.03;;;10.97;38.11
60244;BME280;46106;51.468;5.814;2023-04-03T11:09:43;102778.22;;;10.54;38.57
60244;BME280;46106;51.468;5.814;2023-04-03T11:12:15;102772.47;;;10.60;40.17
60244;BME280;46106;51.468;5.814;2023-04-03T11:14:42;102774.88;;;11.04;38.41
60244;BME280;46106;51.468;5.814;2023-04-03T11:17:26;102789.72;;;10.02;37.44
60244;BME280;46106;51.468;5.814;2023-04-03T11:22:42;102778.69;;;10.63;41.05
60244;BME280;46106;51.468;5.814;2023-04-03T11:25:15;102782.91;;;10.31;36.58
60244;BME280;46106;51.468;5.814;2023-04-03T11:27:59;102774.94;;;10.26;36.50
60244;BME280;46106;51.468;5.814;2023-04-03T11:30:31;102779.66;;;10.23;38.14
60244;BME280;46106;51.468;5.814;2023-04-03T11:35:45;102779.94;;;10.56;37.11
60244;BME280;46106;51.468;5.814;2023-04-03T11:38:21;102771.22;;;10.27;37.55
60244;BME280;46106;51.468;5.814;2023-04-03T11:40:49;102764.91;;;10.46;36.07
60244;BME280;46106;51.468;5.814;2023-04-03T11:46:07;102752.13;;;9.86;38.97
60244;BME280;46106;51.468;5.814;2023-04-03T11:53:53;102748.00;;;9.97;37.57
60244;BME280;46106;51.468;5.814;2023-04-03T11:59:24;102749.13;;;9.92;37.82
60244;BME280;46106;51.468;5.814;2023-04-03T12:01:55;102740.44;;;10.43;39.96
60244;BME280;46106;51.468;5.814;2023-04-03T12:04:23;102756.41;;;10.12;38.24
60244;BME280;46106;51.468;5.814;2023-04-03T12:07:18;102757.41;;;9.91;38.91
60244;BME280;46106;51.468;5.814;2023-04-03T12:15:17;102736.16;;;10.17;39.72
60244;BME280;46106;51.468;5.814;2023-04-03T12:17:43;102725.72;;;10.25;40.88
60244;BME280;46106;51.468;5.814;2023-04-03T12:32:05;102730.97;;;10.10;39.23
60244;BME280;46106;51.468;5.814;2023-04-03T12:40:27;102712.34;;;10.38;41.58
60244;BME280;46106;51.468;5.814;2023-04-03T12:51:33;102712.59;;;10.33;41.95
60244;BME280;46106;51.468;5.814;2023-04-03T12:54:03;102705.88;;;10.20;40.32
60244;BME280;46106;51.468;5.814;2023-04-03T12:56:34;102708.44;;;10.43;42.75
60244;BME280;46106;51.468;5.814;2023-04-03T12:59:22;102701.41;;;10.57;42.85
60244;BME280;46106;51.468;5.814;2023-04-03T13:01:59;102695.53;;;10.64;46.48
60244;BME280;46106;51.468;5.814;2023-04-03T13:04:28;102700.59;;;10.55;43.92
60244;BME280;46106;51.468;5.814;2023-04-03T13:06:55;102686.28;;;10.29;43.97
60244;BME280;46106;51.468;5.814;2023-04-03T13:09:24;102685.91;;;10.18;42.17
60244;BME280;46106;51.468;5.814;2023-04-03T13:11:59;102688.75;;;9.77;41.38
60244;BME280;46106;51.468;5.814;2023-04-03T13:14:27;102681.75;;;9.90;42.85
60244;BME280;46106;51.468;5.814;2023-04-03T13:17:03;102688.88;;;9.73;40.81
60244;BME280;46106;51.468;5.814;2023-04-03T13:19:30;102691.75;;;10.10;43.38
60244;BME280;46106;51.468;5.814;2023-04-03T13:22:10;102690.84;;;9.90;40.97
60244;BME280;46106;51.468;5.814;2023-04-03T13:24:41;102684.50;;;10.09;44.86
60244;BME280;46106;51.468;5.814;2023-04-03T13:27:11;102678.78;;;9.94;43.16
60244;BME280;46106;51.468;5.814;2023-04-03T13:29:38;102680.75;;;9.72;42.55
60244;BME280;46106;51.468;5.814;2023-04-03T13:32:06;102677.84;;;10.15;46.38
60244;BME280;46106;51.468;5.814;2023-04-03T13:34:41;102676.09;;;10.14;41.96
60244;BME280;46106;51.468;5.814;2023-04-03T13:37:30;102666.59;;;10.02;44.74
60244;BME280;46106;51.468;5.814;2023-04-03T13:40:11;102662.53;;;9.91;44.82
60244;BME280;46106;51.468;5.814;2023-04-03T13:42:40;102668.44;;;10.01;44.64
60244;BME280;46106;51.468;5.814;2023-04-03T13:45:26;102664.53;;;10.07;45.43
60244;BME280;46106;51.468;5.814;2023-04-03T13:48:20;102655.56;;;10.03;45.42
60244;BME280;46106;51.468;5.814;2023-04-03T13:50:54;102660.84;;;9.89;44.10
60244;BME280;46106;51.468;5.814;2023-04-03T13:53:20;102656.34;;;9.67;42.60
60244;BME280;46106;51.468;5.814;2023-04-03T13:56:05;102656.44;;;9.66;41.90
60244;BME280;46106;51.468;5.814;2023-04-03T13:58:32;102660.19;;;9.63;43.75
60244;BME280;46106;51.468;5.814;2023-04-03T14:01:11;102656.53;;;9.83;44.56
60244;BME280;46106;51.468;5.814;2023-04-03T14:03:56;102647.34;;;10.03;47.09
60244;BME280;46106;51.468;5.814;2023-04-03T14:06:23;102644.84;;;10.18;45.92
60244;BME280;46106;51.468;5.814;2023-04-03T14:08:49;102643.81;;;10.01;44.96
60244;BME280;46106;51.468;5.814;2023-04-03T14:11:18;102633.16;;;9.95;46.63
60244;BME280;46106;51.468;5.814;2023-04-03T14:13:46;102622.22;;;9.76;46.24
60244;BME280;46106;51.468;5.814;2023-04-03T14:16:15;102647.38;;;9.84;43.98
60244;BME280;46106;51.468;5.814;2023-04-03T14:18:43;102644.69;;;9.83;45.07
60244;BME280;46106;51.468;5.814;2023-04-03T14:21:13;102639.50;;;9.57;42.18
60244;BME280;46106;51.468;5.814;2023-04-03T14:23:40;102643.91;;;9.60;42.97
60244;BME280;46106;51.468;5.814;2023-04-03T14:26:12;102636.91;;;9.73;42.90
60244;BME280;46106;51.468;5.814;2023-04-03T14:28:38;102633.38;;;9.71;45.20
60244;BME280;46106;51.468;5.814;2023-04-03T14:31:05;102635.50;;;9.65;45.75
60244;BME280;46106;51.468;5.814;2023-04-03T14:33:32;102627.94;;;9.90;47.25
60244;BME280;46106;51.468;5.814;2023-04-03T14:36:00;102630.72;;;9.89;46.39
60244;BME280;46106;51.468;5.814;2023-04-03T14:38:29;102626.72;;;9.77;48.34
60244;BME280;46106;51.468;5.814;2023-04-03T14:40:56;102626.22;;;9.88;46.33